Time;durP1;ratioP1;P1;durP2;ratioP2;P2;SDS_P1;SDS_P2;PMS_P1;PMS_P2;Temp;Humidity;BMP_temperature;BMP_pressure;BME280_temperature;BME280_humidity;BME280_pressure;Samples;Min_cycle;Max_cycle;Signal;HPM_P1;HPM_P2
2023/05/26 00:01:29;;;;;;;11.30;10.20;;;;;;;16.01;78.68;100967.66;102745;276;112383;-58
2023/05/26 00:04:03;;;;;;;11.90;10.80;;;;;;;15.99;78.86;100969.81;102737;276;94654;-59
2023/05/26 00:06:41;;;;;;;11.80;10.70;;;;;;;15.98;78.94;100971.52;102753;277;97663;-56
2023/05/26 00:09:22;;;;;;;11.00;9.90;;;;;;;15.91;78.94;100971.81;102727;276;120175;-56
2023/05/26 00:12:04;;;;;;;11.10;9.90;;;;;;;15.84;79.11;100977.20;102757;276;105266;-59
2023/05/26 00:14:43;;;;;;;10.70;9.60;;;;;;;15.78;79.28;100979.86;102743;276;115050;-59
2023/05/26 00:17:21;;;;;;;10.80;9.70;;;;;;;15.73;79.45;100983.46;102777;277;96773;-55
2023/05/26 00:20:00;;;;;;;9.90;8.90;;;;;;;15.69;79.67;100980.16;102802;277;96336;-55
2023/05/26 00:22:44;;;;;;;10.40;9.50;;;;;;;15.69;79.75;100978.39;102832;276;119647;-58
2023/05/26 00:25:23;;;;;;;10.40;9.40;;;;;;;15.64;79.77;100977.59;102778;277;104628;-59
2023/05/26 00:28:04;;;;;;;10.60;9.50;;;;;;;15.63;79.95;100975.41;102759;277;114945;-56
2023/05/26 00:30:40;;;;;;;10.70;9.60;;;;;;;15.67;80.01;100978.98;102773;277;95742;-55
2023/05/26 00:33:16;;;;;;;10.60;9.50;;;;;;;15.66;80.15;100976.92;102742;277;96942;-57
2023/05/26 00:35:55;;;;;;;10.70;9.60;;;;;;;15.65;79.89;100978.42;102762;277;120401;-56
2023/05/26 00:38:38;;;;;;;10.00;9.00;;;;;;;15.61;80.17;100979.65;102724;277;105060;-57
2023/05/26 00:41:20;;;;;;;10.50;9.50;;;;;;;15.58;80.12;100980.98;102734;276;114746;-56
2023/05/26 00:44:05;;;;;;;12.90;10.50;;;;;;;15.57;80.03;100975.32;102725;276;97555;-58
2023/05/26 00:46:47;;;;;;;12.40;10.30;;;;;;;15.57;80.29;100973.86;102725;277;97103;-55
2023/05/26 00:49:32;;;;;;;11.60;10.40;;;;;;;15.59;80.09;100975.37;102526;277;120618;-56
2023/05/26 00:52:10;;;;;;;13.10;10.60;;;;;;;15.58;80.19;100976.45;102768;276;104228;-55
2023/05/26 00:54:48;;;;;;;12.00;9.50;;;;;;;15.55;80.18;100976.61;102519;277;113773;-55
2023/05/26 00:57:29;;;;;;;10.80;9.80;;;;;;;15.56;80.31;100978.38;102748;276;95223;-58
2023/05/26 01:00:08;;;;;;;10.80;9.70;;;;;;;15.56;80.30;100974.94;102750;276;96308;-58
2023/05/26 01:02:53;;;;;;;10.70;9.60;;;;;;;15.52;80.21;100982.98;102834;276;119255;-59
2023/05/26 01:05:34;;;;;;;12.00;10.80;;;;;;;15.43;80.33;100979.38;102588;278;105919;-56
2023/05/26 01:08:19;;;;;;;12.00;10.80;;;;;;;15.36;80.35;100985.39;102797;276;113498;-55
2023/05/26 01:11:00;;;;;;;11.50;10.40;;;;;;;15.26;80.27;100982.10;102787;265;96609;-57
2023/05/26 01:13:53;;;;;;;11.80;9.70;;;;;;;15.19;80.37;100982.17;102835;265;98066;-56
2023/05/26 01:16:39;;;;;;;10.00;8.90;;;;;;;15.18;80.23;100984.13;102800;265;120947;-58
2023/05/26 01:19:50;;;;;;;10.70;9.60;;;;;;;15.09;80.34;100982.35;102792;276;105287;-59
2023/05/26 01:22:50;;;;;;;9.80;7.70;;;;;;;15.04;80.22;100985.47;102750;276;113157;-56
2023/05/26 01:25:48;;;;;;;11.20;8.40;;;;;;;15.00;79.96;100985.99;102747;277;94567;-56
2023/05/26 01:28:27;;;;;;;8.70;7.90;;;;;;;14.96;79.85;100993.97;102721;276;97683;-58
2023/05/26 01:31:03;;;;;;;10.70;9.20;;;;;;;14.90;79.94;100990.02;102741;277;120339;-57
2023/05/26 01:33:37;;;;;;;10.70;9.40;;;;;;;14.86;80.02;100991.30;102743;276;104559;-56
2023/05/26 01:36:19;;;;;;;11.30;10.00;;;;;;;14.81;80.13;100988.85;102528;277;116996;-56
2023/05/26 01:38:59;;;;;;;12.40;9.40;;;;;;;14.75;80.20;100992.34;102709;276;96496;-55
2023/05/26 01:41:46;;;;;;;12.20;9.80;;;;;;;14.67;80.24;100988.95;102728;276;96292;-55
2023/05/26 01:44:29;;;;;;;10.10;8.90;;;;;;;14.60;80.44;100989.80;102715;276;119382;-56
2023/05/26 01:47:08;;;;;;;11.00;9.60;;;;;;;14.55;80.54;100988.98;102767;276;105680;-58
2023/05/26 01:49:51;;;;;;;10.50;9.40;;;;;;;14.54;80.74;100987.16;102740;276;114340;-58
2023/05/26 01:52:33;;;;;;;11.10;9.50;;;;;;;14.56;80.99;100983.45;102767;276;96402;-56
2023/05/26 01:55:14;;;;;;;11.50;8.80;;;;;;;14.62;81.17;100987.63;102780;276;96951;-55
2023/05/26 01:57:50;;;;;;;10.70;9.40;;;;;;;14.67;81.41;100987.20;102837;276;118072;-55
2023/05/26 02:00:37;;;;;;;11.20;10.20;;;;;;;14.75;81.44;100987.27;102834;276;105606;-57
2023/05/26 02:03:12;;;;;;;14.30;12.80;;;;;;;14.80;81.49;100989.01;102739;276;115319;-59
2023/05/26 02:05:52;;;;;;;13.10;11.90;;;;;;;14.82;81.64;100992.98;102616;276;97106;-58
2023/05/26 02:08:30;;;;;;;12.70;11.50;;;;;;;14.84;81.52;100994.35;102764;276;97242;-57
2023/05/26 02:11:10;;;;;;;16.60;12.10;;;;;;;14.85;81.70;100999.23;102781;276;120035;-58
2023/05/26 02:13:56;;;;;;;25.80;12.60;;;;;;;14.86;81.87;100998.71;102715;276;104946;-58
2023/05/26 02:16:34;;;;;;;25.20;12.40;;;;;;;14.87;81.84;100997.00;102633;277;114309;-58
2023/05/26 02:19:16;;;;;;;11.40;10.00;;;;;;;14.90;81.68;100998.64;102712;276;97138;-59
2023/05/26 02:21:53;;;;;;;12.80;9.10;;;;;;;14.90;81.66;100996.27;102495;277;97660;-58
2023/05/26 02:24:34;;;;;;;10.40;9.30;;;;;;;14.86;81.71;100998.38;102749;277;121460;-58
2023/05/26 02:27:10;;;;;;;10.80;8.50;;;;;;;14.84;81.71;100999.86;102736;277;103905;-56
2023/05/26 02:29:47;;;;;;;9.40;8.40;;;;;;;14.82;81.63;100999.79;102672;277;114176;-56
2023/05/26 02:32:34;;;;;;;9.70;7.90;;;;;;;14.80;81.42;101000.27;102711;277;96525;-58
2023/05/26 02:35:11;;;;;;;9.50;8.40;;;;;;;14.72;81.55;100997.27;102734;277;97846;-58
2023/05/26 02:37:54;;;;;;;9.70;8.30;;;;;;;14.64;81.52;100999.68;102781;277;120131;-58
2023/05/26 02:40:28;;;;;;;9.40;8.10;;;;;;;14.52;81.54;100995.23;102743;277;105953;-57
2023/05/26 02:43:05;;;;;;;;;;;;;;;14.45;81.58;100994.77;102799;277;113516;-58
2023/05/26 02:45:44;;;;;;;10.80;8.80;;;;;;;14.37;81.65;100994.05;102797;277;95515;-55
2023/05/26 02:48:26;;;;;;;10.00;8.60;;;;;;;14.31;81.76;100990.46;102810;277;98269;-55
2023/05/26 02:51:05;;;;;;;12.30;8.10;;;;;;;14.26;81.73;100987.08;102737;277;119472;-54
2023/05/26 02:53:52;;;;;;;10.70;8.40;;;;;;;14.27;81.96;100989.27;102739;277;104554;-55
2023/05/26 02:56:28;;;;;;;8.90;8.00;;;;;;;14.32;81.99;100987.73;102717;277;113626;-58
2023/05/26 02:59:08;;;;;;;9.70;7.90;;;;;;;14.40;82.14;100993.23;102696;277;95992;-57
2023/05/26 03:01:48;;;;;;;9.40;8.40;;;;;;;14.45;82.32;101001.36;102771;277;95993;-58
2023/05/26 03:04:30;;;;;;;9.70;8.50;;;;;;;14.52;82.18;101005.35;102700;277;121421;-59
2023/05/26 03:07:09;;;;;;;10.40;8.30;;;;;;;14.60;82.19;101007.78;102723;277;105461;-59
2023/05/26 03:09:47;;;;;;;9.10;8.00;;;;;;;14.59;82.10;101008.61;102696;277;113531;-58
2023/05/26 03:12:21;;;;;;;9.00;8.10;;;;;;;14.57;82.08;101005.52;102707;277;95280;-56
2023/05/26 03:14:59;;;;;;;9.90;8.70;;;;;;;14.60;81.94;101011.26;102737;277;97367;-55
2023/05/26 03:17:43;;;;;;;9.90;8.90;;;;;;;14.61;82.21;101010.20;102709;277;120913;-55
2023/05/26 03:20:25;;;;;;;10.50;8.60;;;;;;;14.65;82.04;101006.63;102747;277;104886;-54
2023/05/26 03:23:02;;;;;;;9.70;8.60;;;;;;;14.74;82.21;101004.51;102764;277;115105;-55
2023/05/26 03:25:39;;;;;;;9.70;8.80;;;;;;;14.84;81.94;101005.98;102746;277;95117;-58
2023/05/26 03:28:20;;;;;;;10.30;9.30;;;;;;;14.92;82.12;101004.85;102743;277;97323;-58
2023/05/26 03:31:04;;;;;;;10.20;9.00;;;;;;;15.01;82.38;101006.66;102795;277;121016;-57
2023/05/26 03:33:40;;;;;;;12.20;9.40;;;;;;;15.30;81.88;101006.98;102728;277;105728;-56
2023/05/26 03:36:20;;;;;;;11.30;9.30;;;;;;;15.81;81.70;101007.48;102717;277;114579;-56
2023/05/26 03:39:04;;;;;;;10.70;8.60;;;;;;;16.54;81.01;101009.08;102708;277;95530;-56
2023/05/26 03:41:39;;;;;;;9.20;8.30;;;;;;;17.32;80.47;101012.63;102745;277;98175;-58
2023/05/26 03:44:18;;;;;;;9.30;8.00;;;;;;;17.97;79.48;101007.79;102734;277;121072;-59
2023/05/26 03:46:56;;;;;;;9.80;8.80;;;;;;;18.66;78.48;101007.40;102726;277;105820;-56
2023/05/26 03:49:35;;;;;;;9.50;8.30;;;;;;;19.21;77.64;101003.08;102686;277;113710;-56
2023/05/26 03:52:12;;;;;;;8.30;7.50;;;;;;;19.67;76.11;101001.98;102708;277;94805;-58
2023/05/26 03:54:51;;;;;;;8.30;7.60;;;;;;;20.06;75.12;101002.84;102719;277;97598;-58
2023/05/26 03:57:28;;;;;;;8.30;7.50;;;;;;;20.41;74.10;101000.31;102708;277;120506;-58
2023/05/26 04:00:06;;;;;;;9.70;7.10;;;;;;;20.75;72.79;101002.29;102719;277;104227;-58
2023/05/26 04:02:49;;;;;;;8.80;6.80;;;;;;;21.08;71.73;101004.13;102522;277;114695;-56
2023/05/26 04:05:30;;;;;;;9.10;7.30;;;;;;;21.50;70.72;101005.61;102701;277;94679;-56
2023/05/26 04:08:09;;;;;;;8.40;6.90;;;;;;;21.87;69.33;101004.99;102741;277;97030;-56
2023/05/26 04:10:52;;;;;;;9.20;7.20;;;;;;;21.85;68.48;101004.90;102742;277;121133;-58
2023/05/26 04:13:36;;;;;;;8.80;6.40;;;;;;;21.44;67.81;101011.79;102742;277;105688;-59
2023/05/26 04:16:23;;;;;;;8.00;6.20;;;;;;;20.91;67.52;101018.14;102716;277;115517;-56
2023/05/26 04:19:06;;;;;;;7.70;6.60;;;;;;;20.46;67.69;101018.12;102763;277;94309;-56
2023/05/26 04:21:47;;;;;;;6.50;5.90;;;;;;;20.06;67.56;101014.81;102810;277;96201;-58
2023/05/26 04:24:30;;;;;;;7.30;6.50;;;;;;;19.78;67.35;101020.46;102746;277;120757;-58
2023/05/26 04:27:09;;;;;;;7.20;6.30;;;;;;;19.41;67.70;101026.56;102745;277;104731;-58
2023/05/26 04:29:46;;;;;;;7.10;6.20;;;;;;;19.26;68.36;101024.09;102785;277;114239;-58
2023/05/26 04:32:24;;;;;;;6.70;6.00;;;;;;;19.20;68.66;101018.95;102775;277;94008;-67
2023/05/26 04:35:04;;;;;;;7.80;5.40;;;;;;;19.13;68.67;101019.36;102746;277;98004;-56
2023/05/26 04:37:38;;;;;;;9.00;6.00;;;;;;;19.22;67.93;101019.08;102739;277;120098;-58
2023/05/26 04:40:18;;;;;;;7.70;5.30;;;;;;;19.16;67.70;101015.23;102741;277;105730;-59
2023/05/26 04:42:58;;;;;;;9.40;6.00;;;;;;;19.03;67.58;101011.34;102739;277;113836;-59
2023/05/26 04:45:35;;;;;;;6.90;5.80;;;;;;;19.05;67.40;101013.88;102714;277;93232;-58
2023/05/26 04:48:13;;;;;;;7.60;5.30;;;;;;;19.03;67.50;101011.50;102752;277;98370;-58
2023/05/26 04:50:53;;;;;;;7.80;5.40;;;;;;;19.17;67.58;101014.34;102736;277;120074;-57
2023/05/26 04:53:32;;;;;;;8.50;5.50;;;;;;;19.99;67.05;101010.55;102760;277;106068;-55
2023/05/26 04:56:19;;;;;;;6.60;5.50;;;;;;;21.44;65.93;101013.52;102717;277;114486;-56
2023/05/26 04:59:03;;;;;;;8.50;5.20;;;;;;;22.46;64.05;101007.79;102734;277;93640;-57
2023/05/26 05:01:47;;;;;;;5.10;4.50;;;;;;;23.55;62.83;101007.70;102808;277;96407;-59
2023/05/26 05:04:28;;;;;;;6.90;5.10;;;;;;;24.38;61.07;101006.36;102772;277;121057;-60
2023/05/26 05:07:04;;;;;;;6.00;5.00;;;;;;;24.95;59.67;101010.89;102809;277;104592;-66
2023/05/26 05:09:43;;;;;;;5.40;4.40;;;;;;;25.40;58.39;101010.02;102784;277;112800;-59
2023/05/26 05:12:21;;;;;;;5.10;4.60;;;;;;;25.95;56.84;101006.86;102720;277;94152;-57
2023/05/26 05:15:00;;;;;;;6.40;4.60;;;;;;;26.14;55.93;101006.61;102806;277;98156;-57
2023/05/26 05:17:40;;;;;;;5.30;4.50;;;;;;;26.18;55.01;101007.39;102738;277;120761;-58
2023/05/26 05:20:15;;;;;;;5.80;4.50;;;;;;;26.61;54.30;101001.73;102723;277;105353;-59
2023/05/26 05:22:55;;;;;;;7.10;4.90;;;;;;;27.03;53.46;101003.80;102687;277;115114;-59
2023/05/26 05:25:33;;;;;;;5.00;4.40;;;;;;;27.55;52.28;101001.14;102741;277;94419;-56
2023/05/26 05:28:07;;;;;;;5.30;4.40;;;;;;;27.84;50.92;101003.20;102741;277;97995;-56
2023/05/26 05:30:46;;;;;;;7.50;4.60;;;;;;;27.88;49.36;101005.51;102720;277;119207;-58
2023/05/26 05:33:27;;;;;;;6.80;4.50;;;;;;;26.87;48.76;101007.82;102714;277;104848;-58
2023/05/26 05:36:05;;;;;;;;;;;;;;;25.62;49.22;101018.09;102689;277;114182;-57
2023/05/26 05:38:47;;;;;;;5.20;4.30;;;;;;;24.50;50.45;101018.89;102741;277;95059;-57
2023/05/26 05:41:28;;;;;;;5.90;4.20;;;;;;;23.96;51.07;101020.27;102804;277;98323;-58
2023/05/26 05:44:04;;;;;;;7.80;4.10;;;;;;;23.70;52.24;101020.06;102756;277;121280;-58
2023/05/26 05:46:42;;;;;;;6.50;4.30;;;;;;;23.32;52.74;101024.35;102747;277;104236;-65
2023/05/26 05:49:35;;;;;;;6.00;4.20;;;;;;;23.10;52.83;101027.55;102021;277;782967;-58
2023/05/26 05:52:21;;;;;;;5.60;3.10;;;;;;;23.08;52.10;101028.67;102765;277;93398;-56
2023/05/26 05:55:08;;;;;;;4.20;3.60;;;;;;;23.35;51.72;101028.98;102763;277;97639;-56
2023/05/26 05:57:43;;;;;;;4.30;3.00;;;;;;;24.25;50.87;101025.02;102774;277;120949;-59
2023/05/26 06:00:22;;;;;;;6.20;3.80;;;;;;;25.48;49.33;101029.29;102771;277;106072;-59
2023/05/26 06:03:00;;;;;;;6.30;4.10;;;;;;;26.56;48.05;101022.14;102538;277;114633;-60
2023/05/26 06:05:39;;;;;;;7.30;4.00;;;;;;;27.71;47.60;101022.18;102684;277;95298;-56
2023/05/26 06:08:23;;;;;;;5.40;3.70;;;;;;;28.73;46.60;101018.95;102752;277;97086;-56
2023/05/26 06:11:10;;;;;;;5.60;3.40;;;;;;;29.36;45.06;101019.45;102748;277;120314;-59
2023/05/26 06:13:50;;;;;;;5.20;3.60;;;;;;;30.04;43.96;101020.84;102684;277;105646;-59
2023/05/26 06:16:31;;;;;;;4.30;3.40;;;;;;;30.53;42.94;101016.79;102726;275;114279;-60
2023/05/26 06:19:06;;;;;;;6.60;3.50;;;;;;;30.90;41.67;101005.25;102713;277;93593;-60
2023/05/26 06:21:45;;;;;;;6.90;3.80;;;;;;;31.14;40.94;101004.95;102767;277;96460;-59
2023/05/26 06:24:24;;;;;;;6.80;3.40;;;;;;;31.51;40.22;101005.33;102707;277;121636;-60
2023/05/26 06:27:07;;;;;;;5.90;3.60;;;;;;;31.78;38.90;101005.22;102770;277;105910;-57
2023/05/26 06:29:46;;;;;;;4.20;3.10;;;;;;;32.14;38.33;101010.88;102739;277;114109;-57
2023/05/26 06:32:28;;;;;;;5.10;3.40;;;;;;;32.39;37.76;101012.98;102758;277;94911;-59
2023/05/26 06:35:09;;;;;;;5.40;3.40;;;;;;;32.82;37.58;101004.62;102733;277;97561;-60
2023/05/26 06:37:48;;;;;;;5.30;3.10;;;;;;;33.02;36.84;101009.45;102762;277;120110;-57
2023/05/26 06:40:30;;;;;;;7.70;3.30;;;;;;;33.04;36.69;101009.55;102798;277;105786;-58
2023/05/26 06:43:12;;;;;;;4.80;3.00;;;;;;;33.21;35.27;101008.86;102735;277;115093;-59
2023/05/26 06:45:50;;;;;;;5.80;3.20;;;;;;;33.06;34.50;101007.08;102504;278;93222;-56
2023/05/26 06:48:37;;;;;;;6.50;3.40;;;;;;;33.13;34.47;101012.83;102723;277;97303;-56
2023/05/26 06:51:14;;;;;;;6.70;3.10;;;;;;;33.03;33.97;101014.20;102728;277;119011;-60
2023/05/26 06:53:56;;;;;;;7.30;3.70;;;;;;;33.26;33.68;101015.21;102742;277;105950;-60
2023/05/26 06:56:32;;;;;;;6.90;3.60;;;;;;;33.47;33.67;101016.80;102505;277;115068;-56
2023/05/26 06:59:20;;;;;;;6.30;3.90;;;;;;;33.89;33.61;101020.02;102703;277;95335;-55
2023/05/26 07:02:03;;;;;;;6.40;3.70;;;;;;;34.08;33.57;101020.33;102727;277;98515;-56
2023/05/26 07:04:43;;;;;;;4.40;3.10;;;;;;;34.28;32.58;101021.34;102686;277;120898;-60
2023/05/26 07:07:22;;;;;;;7.00;4.10;;;;;;;34.45;32.00;101021.80;102763;277;105726;-61
2023/05/26 07:10:01;;;;;;;5.20;3.30;;;;;;;34.79;31.52;101019.67;102699;277;114064;-61
2023/05/26 07:12:39;;;;;;;5.50;3.50;;;;;;;34.95;31.17;101022.11;102762;277;93580;-57
2023/05/26 07:15:14;;;;;;;5.30;3.40;;;;;;;34.66;31.27;101020.80;102757;277;97589;-57
2023/05/26 07:17:50;;;;;;;6.50;3.50;;;;;;;34.47;31.05;101022.88;102814;277;119183;-59
2023/05/26 07:20:27;;;;;;;4.10;3.10;;;;;;;34.61;31.16;101020.33;102750;277;105194;-56
2023/05/26 07:23:06;;;;;;;4.70;3.50;;;;;;;34.62;31.41;101018.20;102785;277;114394;-61
2023/05/26 07:25:42;;;;;;;4.80;3.10;;;;;;;35.01;31.07;101014.63;102761;277;94751;-58
2023/05/26 07:28:16;;;;;;;4.90;3.40;;;;;;;34.81;31.41;101018.40;102774;277;97758;-57
2023/05/26 07:30:55;;;;;;;4.90;3.10;;;;;;;34.04;31.14;101016.92;102707;277;121116;-60
2023/05/26 07:33:34;;;;;;;4.30;3.20;;;;;;;33.67;32.11;101017.48;102745;277;104433;-60
2023/05/26 07:36:22;;;;;;;5.00;3.10;;;;;;;34.05;32.59;101022.83;102711;277;113724;-58
2023/05/26 07:39:06;;;;;;;4.60;3.40;;;;;;;34.36;32.00;101024.75;102704;277;94222;-58
2023/05/26 07:41:47;;;;;;;5.20;3.50;;;;;;;34.33;31.90;101024.14;102720;277;98699;-58
2023/05/26 07:44:26;;;;;;;6.70;3.90;;;;;;;34.47;30.97;101020.95;102717;277;121382;-58
2023/05/26 07:47:07;;;;;;;5.30;4.00;;;;;;;34.83;31.05;101024.77;102776;277;104289;-58
2023/05/26 07:49:51;;;;;;;4.80;3.10;;;;;;;35.00;30.74;101025.16;102709;277;115078;-60
2023/05/26 07:52:34;;;;;;;5.50;3.80;;;;;;;34.98;30.86;101027.06;102744;277;95021;-57
2023/05/26 07:55:12;;;;;;;5.40;3.60;;;;;;;34.21;31.19;101022.52;102795;277;96931;-56
2023/05/26 07:57:49;;;;;;;7.60;4.00;;;;;;;34.30;31.87;101023.51;102801;277;121253;-60
2023/05/26 08:00:25;;;;;;;5.50;3.80;;;;;;;34.46;31.00;101021.17;102741;277;105225;-57
2023/05/26 08:03:08;;;;;;;4.50;3.50;;;;;;;33.44;31.12;101026.61;102739;277;114343;-59
2023/05/26 08:05:44;;;;;;;;;;;;;;;32.72;31.73;101023.81;102528;274;97095;-56
2023/05/26 08:08:20;;;;;;;4.50;3.80;;;;;;;32.40;32.34;101022.46;102705;277;97263;-60
2023/05/26 08:11:04;;;;;;;6.10;4.00;;;;;;;32.43;32.90;101021.75;102767;277;120328;-56
2023/05/26 08:13:46;;;;;;;7.00;4.00;;;;;;;31.68;32.73;101025.89;102764;277;104450;-55
2023/05/26 08:16:23;;;;;;;5.20;3.60;;;;;;;30.64;33.39;101032.31;102742;277;115056;-57
2023/05/26 08:19:01;;;;;;;5.40;3.60;;;;;;;30.12;34.70;101040.84;102800;277;95270;-56
2023/05/26 08:21:39;;;;;;;4.40;3.70;;;;;;;30.25;35.17;101034.55;102777;277;97317;-56
2023/05/26 08:24:16;;;;;;;5.20;3.70;;;;;;;29.86;35.72;101036.80;102742;277;120322;-55
2023/05/26 08:26:58;;;;;;;5.00;3.60;;;;;;;30.99;35.89;101034.70;102783;277;106383;-61
2023/05/26 08:29:35;;;;;;;3.80;3.40;;;;;;;31.50;34.09;101027.91;102740;277;112827;-61
2023/05/26 08:32:11;;;;;;;5.70;3.80;;;;;;;31.02;34.31;101026.58;102742;277;92007;-56
2023/05/26 08:34:51;;;;;;;6.50;4.10;;;;;;;31.16;34.51;101033.55;102736;277;96094;-56
2023/05/26 08:37:27;;;;;;;5.50;3.70;;;;;;;31.46;34.93;101029.45;102713;277;120438;-61
2023/05/26 08:40:09;;;;;;;5.30;3.70;;;;;;;32.01;34.18;101026.13;102768;277;105822;-61
2023/05/26 08:42:56;;;;;;;6.40;3.50;;;;;;;32.66;33.32;101022.85;102749;277;114686;-58
2023/05/26 08:45:33;;;;;;;5.30;3.30;;;;;;;31.52;32.36;101021.69;102716;277;92997;-58
2023/05/26 08:48:16;;;;;;;5.30;3.30;;;;;;;30.24;33.52;101024.70;102818;277;96022;-60
2023/05/26 08:51:02;;;;;;;4.20;3.30;;;;;;;30.65;34.74;101021.64;102778;277;120897;-61
2023/05/26 08:53:46;;;;;;;6.40;4.00;;;;;;;31.16;34.30;101020.48;102736;277;104048;-59
2023/05/26 08:56:29;;;;;;;4.10;3.30;;;;;;;30.74;34.27;101025.14;102756;277;113328;-60
2023/05/26 08:59:09;;;;;;;5.00;3.40;;;;;;;29.79;34.45;101029.19;102691;277;94485;-60
2023/05/26 09:01:45;;;;;;;4.90;3.40;;;;;;;29.40;35.22;101027.53;102745;277;97744;-59
2023/05/26 09:04:23;;;;;;;5.40;3.30;;;;;;;29.61;36.06;101024.67;102746;277;119182;-59
2023/05/26 09:07:03;;;;;;;7.80;3.80;;;;;;;29.88;35.39;101024.74;102722;277;104897;-58
2023/05/26 09:09:41;;;;;;;7.60;3.70;;;;;;;29.88;35.07;101024.28;102686;277;113993;-57
2023/05/26 09:12:30;;;;;;;6.50;3.40;;;;;;;29.68;34.74;101018.09;102755;277;95272;-57
2023/05/26 09:15:10;;;;;;;5.80;3.50;;;;;;;29.49;35.22;101022.89;102711;277;96718;-57
2023/05/26 09:17:52;;;;;;;4.30;3.50;;;;;;;28.97;35.62;101022.20;102804;277;121233;-61
2023/05/26 09:20:43;;;;;;;6.70;3.60;;;;;;;28.29;35.99;101023.60;102774;273;106584;-59
2023/05/26 09:23:30;;;;;;;6.90;3.20;;;;;;;28.08;36.56;101018.12;102735;277;114236;-58
2023/05/26 09:26:16;;;;;;;5.40;3.60;;;;;;;28.31;36.98;101015.68;102744;277;94406;-57
2023/05/26 09:28:57;;;;;;;5.80;3.40;;;;;;;28.33;37.07;101013.34;102765;277;98683;-55
2023/05/26 09:31:49;;;;;;;5.40;3.50;;;;;;;28.54;36.56;101013.91;102713;277;120130;-61
2023/05/26 09:34:35;;;;;;;5.50;3.50;;;;;;;28.75;36.30;101008.98;102659;265;106094;-61
2023/05/26 09:37:15;;;;;;;8.90;4.50;;;;;;;29.03;36.36;101007.16;102708;277;114331;-57
2023/05/26 09:39:53;;;;;;;9.60;4.00;;;;;;;29.05;35.96;101008.98;102747;277;94679;-56
2023/05/26 09:42:34;;;;;;;4.60;3.00;;;;;;;29.08;35.89;101012.82;102691;277;96881;-59
2023/05/26 09:45:18;;;;;;;5.50;3.50;;;;;;;29.27;35.91;101009.66;102686;277;120371;-58
2023/05/26 09:48:03;;;;;;;5.40;3.60;;;;;;;29.24;35.49;101008.36;102708;277;105549;-59
2023/05/26 09:50:44;;;;;;;5.90;3.60;;;;;;;29.26;35.70;101013.35;102746;277;113595;-60
2023/05/26 09:53:31;;;;;;;6.20;3.80;;;;;;;29.47;35.90;101010.78;102755;277;94112;-60
2023/05/26 09:56:08;;;;;;;6.70;3.30;;;;;;;29.43;35.31;101010.05;102760;277;98061;-58
2023/05/26 09:58:53;;;;;;;9.10;3.70;;;;;;;29.38;35.69;101011.58;102723;277;120318;-57
2023/05/26 10:01:32;;;;;;;4.00;2.90;;;;;;;29.27;36.00;101013.00;102799;277;105054;-59
2023/05/26 10:04:15;;;;;;;6.20;3.30;;;;;;;29.22;35.94;101011.00;102708;277;114162;-58
2023/05/26 10:07:00;;;;;;;6.90;3.40;;;;;;;29.25;35.62;101006.45;102747;276;95118;-55
2023/05/26 10:09:39;;;;;;;4.20;3.20;;;;;;;29.27;35.33;101008.71;102726;277;98525;-56
2023/05/26 10:12:18;;;;;;;5.50;3.10;;;;;;;29.24;35.00;101007.07;102773;277;119527;-55
2023/05/26 10:15:06;;;;;;;7.00;3.20;;;;;;;29.31;34.63;101008.66;102705;277;105439;-55
2023/05/26 10:17:42;;;;;;;5.90;3.10;;;;;;;29.21;34.25;101010.00;102758;277;114773;-56
2023/05/26 10:20:20;;;;;;;5.30;3.00;;;;;;;29.04;34.12;101009.04;102757;277;93818;-56
2023/05/26 10:23:16;;;;;;;6.90;3.40;;;;;;;29.02;34.05;101015.14;102810;276;96648;-60
2023/05/26 10:26:02;;;;;;;7.80;3.00;;;;;;;28.89;34.37;101012.17;102834;277;121039;-56
2023/05/26 10:28:47;;;;;;;7.10;2.90;;;;;;;28.46;34.20;101013.32;102762;277;105904;-57
2023/05/26 10:31:35;;;;;;;5.00;3.00;;;;;;;28.46;34.08;101013.05;102754;277;112962;-61
2023/05/26 10:34:43;;;;;;;5.10;2.70;;;;;;;28.30;34.07;101010.75;102730;277;95021;-59
2023/05/26 10:37:33;;;;;;;5.30;2.90;;;;;;;28.17;33.60;101013.42;102739;277;95891;-55
2023/05/26 10:40:33;;;;;;;6.40;3.20;;;;;;;28.09;34.32;101005.54;102714;277;121397;-56
2023/05/26 10:43:24;;;;;;;6.80;3.30;;;;;;;28.06;34.22;101002.63;102498;277;105893;-57
2023/05/26 10:46:01;;;;;;;4.80;2.90;;;;;;;27.78;33.75;101001.98;102690;277;114487;-56
2023/05/26 10:49:01;;;;;;;7.00;3.40;;;;;;;27.60;33.52;101007.92;102731;277;93040;-56
2023/05/26 10:51:55;;;;;;;4.80;2.90;;;;;;;27.41;33.77;101008.14;102726;277;96853;-56
2023/05/26 10:54:35;;;;;;;4.10;2.90;;;;;;;27.31;34.63;101004.13;102766;277;120212;-57
2023/05/26 10:57:31;;;;;;;7.80;3.50;;;;;;;27.35;34.43;101000.15;102810;277;106098;-60
2023/05/26 11:00:28;;;;;;;6.80;3.50;;;;;;;27.04;34.07;101000.20;102780;277;114770;-60
2023/05/26 11:03:33;;;;;;;8.50;3.60;;;;;;;27.11;34.72;101002.84;102675;277;93141;-57
2023/05/26 11:06:17;;;;;;;6.90;3.80;;;;;;;27.23;35.25;101002.89;102520;277;97413;-60
2023/05/26 11:08:53;;;;;;;4.70;3.20;;;;;;;27.34;35.10;101002.62;102520;277;120679;-60
2023/05/26 11:11:38;;;;;;;8.20;3.40;;;;;;;27.39;35.19;100994.23;102543;277;105291;-60
2023/05/26 11:14:22;;;;;;;6.90;3.50;;;;;;;27.47;35.23;100997.85;102547;277;114197;-60
2023/05/26 11:17:03;;;;;;;5.30;2.60;;;;;;;27.51;35.42;100995.33;102530;277;94797;-60
2023/05/26 11:19:42;;;;;;;5.40;3.40;;;;;;;27.46;35.43;100995.35;102587;277;98331;-60
2023/05/26 11:22:17;;;;;;;7.20;3.50;;;;;;;27.45;35.36;100995.81;102578;277;120368;-61
2023/05/26 11:24:59;;;;;;;5.60;3.20;;;;;;;27.39;34.84;100995.83;102579;277;105229;-60
2023/05/26 11:27:37;;;;;;;5.20;3.00;;;;;;;27.05;34.76;100991.93;102553;277;115277;-58
2023/05/26 11:30:16;;;;;;;4.00;2.80;;;;;;;26.90;35.10;100988.56;102527;277;94368;-59
2023/05/26 11:33:03;;;;;;;8.00;3.70;;;;;;;26.88;35.85;100984.13;102523;277;96481;-56
2023/05/26 11:35:42;;;;;;;6.30;2.80;;;;;;;26.91;35.97;100987.21;102530;277;120161;-60
2023/05/26 11:38:22;;;;;;;4.10;2.40;;;;;;;26.87;35.63;100989.34;102480;278;104004;-60
2023/05/26 11:40:59;;;;;;;5.70;2.50;;;;;;;26.74;35.73;100987.63;102549;277;114630;-60
2023/05/26 11:43:42;;;;;;;5.80;2.60;;;;;;;26.51;35.66;100983.98;102588;277;94690;-60
2023/05/26 11:46:29;;;;;;;5.40;3.10;;;;;;;26.38;35.42;100986.11;102557;277;97197;-59
2023/05/26 11:49:14;;;;;;;5.30;2.40;;;;;;;26.12;34.70;100993.04;102534;277;118231;-59
2023/05/26 11:51:53;;;;;;;5.90;3.00;;;;;;;25.68;34.92;100989.24;102607;277;105842;-60
2023/05/26 11:54:29;;;;;;;7.20;3.50;;;;;;;25.40;35.02;100995.04;102554;277;114332;-60
2023/05/26 11:57:05;;;;;;;6.30;2.70;;;;;;;25.20;35.29;100999.60;102503;277;92268;-59
2023/05/26 11:59:42;;;;;;;6.00;2.60;;;;;;;25.19;35.87;100997.05;102544;277;97500;-60
2023/05/26 12:02:28;;;;;;;6.80;2.70;;;;;;;25.07;35.57;100996.91;102513;277;120915;-60
2023/05/26 12:05:26;;;;;;;4.90;2.60;;;;;;;25.00;35.68;100996.98;102491;279;105640;-60
2023/05/26 12:08:10;;;;;;;5.60;2.40;;;;;;;25.05;35.90;100992.58;102528;278;114960;-59
2023/05/26 12:10:49;;;;;;;4.90;2.30;;;;;;;25.01;35.76;100995.21;102531;278;94733;-56
2023/05/26 12:13:39;;;;;;;5.80;2.70;;;;;;;24.87;35.66;100993.81;102591;278;96591;-56
2023/05/26 12:16:32;;;;;;;5.80;2.20;;;;;;;24.92;36.04;101000.59;102531;278;121035;-57
2023/05/26 12:19:14;;;;;;;5.30;2.40;;;;;;;25.02;36.37;100994.67;102541;279;106037;-56
2023/05/26 12:21:56;;;;;;;7.20;2.30;;;;;;;25.07;36.18;100993.52;102537;278;113546;-54
2023/05/26 12:24:41;;;;;;;6.70;3.20;;;;;;;24.99;35.81;100992.04;102532;279;94778;-59